Time;durP1;ratioP1;P1;durP2;ratioP2;P2;SDS_P1;SDS_P2;PMS_P1;PMS_P2;Temp;Humidity;BMP_temperature;BMP_pressure;BME280_temperature;BME280_humidity;BME280_pressure;Samples;Min_cycle;Max_cycle;Signal;HPM_P1;HPM_P2
2023/02/06 00:00:22;;;;;;;12.67;5.20;;;7.30;99.90;;;;;;5052018;28;20526;-63
2023/02/06 00:02:48;;;;;;;10.37;4.40;;;7.30;99.90;;;;;;5052066;28;20187;-63
2023/02/06 00:05:14;;;;;;;9.93;3.73;;;7.30;99.90;;;;;;5053796;28;20439;-63
2023/02/06 00:07:40;;;;;;;17.03;4.97;;;7.30;99.90;;;;;;5034990;28;20982;-63
2023/02/06 00:10:06;;;;;;;12.83;4.87;;;7.30;99.90;;;;;;5031660;28;20444;-63
2023/02/06 00:12:32;;;;;;;14.10;5.27;;;7.30;99.90;;;;;;5038948;28;20294;-66
2023/02/06 00:14:58;;;;;;;14.47;5.33;;;7.30;99.90;;;;;;5036452;28;20385;-63
2023/02/06 00:17:23;;;;;;;13.50;5.80;;;7.30;99.90;;;;;;5034370;28;20175;-63
2023/02/06 00:19:49;;;;;;;15.80;5.60;;;7.40;99.90;;;;;;5052048;28;20195;-63
2023/02/06 00:22:15;;;;;;;15.90;5.93;;;7.50;99.90;;;;;;5052601;28;20309;-63
2023/02/06 00:24:40;;;;;;;9.17;5.50;;;7.40;99.90;;;;;;5053094;28;20180;-63
2023/02/06 00:27:06;;;;;;;11.80;5.47;;;7.40;99.90;;;;;;5051621;28;20199;-63
2023/02/06 00:29:35;;;;;;;16.83;6.40;;;7.40;99.90;;;;;;5053638;28;20521;-63
2023/02/06 00:32:00;;;;;;;9.23;5.40;;;7.40;99.90;;;;;;5033960;28;20475;-63
2023/02/06 00:34:26;;;;;;;14.30;5.60;;;7.40;99.90;;;;;;5039729;28;20751;-63
2023/02/06 00:36:52;;;;;;;10.97;5.60;;;7.50;99.90;;;;;;5051795;28;20180;-63
2023/02/06 00:39:18;;;;;;;13.03;4.90;;;7.40;99.90;;;;;;5052139;28;20186;-63
2023/02/06 00:41:44;;;;;;;15.27;5.70;;;7.40;99.90;;;;;;5051743;28;20315;-63
2023/02/06 00:44:10;;;;;;;12.40;5.23;;;7.40;99.90;;;;;;5053104;28;20537;-63
2023/02/06 00:46:36;;;;;;;16.03;5.40;;;7.40;99.90;;;;;;5035961;28;20266;-63
2023/02/06 00:49:02;;;;;;;12.23;5.53;;;7.40;99.90;;;;;;5038868;28;20430;-63
2023/02/06 00:51:28;;;;;;;16.23;6.13;;;7.40;99.90;;;;;;5036590;28;20730;-63
2023/02/06 00:53:53;;;;;;;13.67;5.30;;;7.40;99.90;;;;;;5045898;28;20443;-63
2023/02/06 00:56:19;;;;;;;16.23;5.50;;;7.40;99.90;;;;;;5051935;28;20435;-63
2023/02/06 00:58:45;;;;;;;16.40;5.97;;;7.40;99.90;;;;;;5052217;28;20177;-63
2023/02/06 01:01:10;;;;;;;11.13;5.20;;;7.50;99.90;;;;;;5051854;28;20184;-63
2023/02/06 01:03:36;;;;;;;12.63;5.63;;;7.50;99.90;;;;;;5049314;28;20195;-63
2023/02/06 01:06:02;;;;;;;12.93;5.60;;;7.50;99.90;;;;;;5033892;28;20207;-63
2023/02/06 01:08:30;;;;;;;13.90;6.07;;;7.50;99.90;;;;;;5052960;28;20168;-63
2023/02/06 01:10:55;;;;;;;13.87;6.23;;;7.50;99.90;;;;;;5050817;28;20215;-63
2023/02/06 01:13:21;;;;;;;13.13;5.30;;;7.50;99.90;;;;;;5051679;28;20438;-63
2023/02/06 01:15:47;;;;;;;10.90;5.10;;;7.60;99.90;;;;;;5023636;28;20186;-62
2023/02/06 01:18:13;;;;;;;15.70;5.43;;;7.60;99.90;;;;;;5041379;28;20184;-63
2023/02/06 01:20:39;;;;;;;11.07;5.10;;;7.60;99.90;;;;;;5050699;28;20196;-63
2023/02/06 01:23:05;;;;;;;8.10;5.30;;;7.50;99.90;;;;;;5051603;28;20231;-63
2023/02/06 01:25:30;;;;;;;12.43;4.97;;;7.50;99.90;;;;;;5052761;28;20879;-63
2023/02/06 01:27:56;;;;;;;11.83;5.30;;;7.50;99.90;;;;;;5050856;28;20224;-63
2023/02/06 01:30:22;;;;;;;14.90;5.73;;;7.50;99.90;;;;;;5050300;28;20397;-63
2023/02/06 01:32:48;;;;;;;11.37;5.20;;;7.50;99.90;;;;;;5051104;28;20608;-63
2023/02/06 01:35:13;;;;;;;18.67;5.40;;;7.50;99.90;;;;;;5051363;28;20203;-63
2023/02/06 01:37:40;;;;;;;15.97;5.73;;;7.50;99.90;;;;;;5032946;28;20186;-63
2023/02/06 01:40:10;;;;;;;12.73;5.00;;;7.40;99.90;;;;;;5050802;28;20281;-63
2023/02/06 01:42:37;;;;;;;21.00;6.53;;;7.40;99.90;;;;;;5034868;28;20431;-63
2023/02/06 01:45:33;;;;;;;16.80;5.57;;;7.40;99.90;;;;;;5051124;28;20431;-63
2023/02/06 01:48:04;;;;;;;6.77;5.40;;;7.30;99.90;;;;;;4989664;28;20453;-63
2023/02/06 01:50:31;;;;;;;11.87;5.27;;;7.30;99.90;;;;;;5015218;28;20854;-63
2023/02/06 01:52:57;;;;;;;13.43;5.27;;;7.30;99.90;;;;;;5050020;28;20448;-63
2023/02/06 01:55:23;;;;;;;13.53;5.17;;;7.30;99.90;;;;;;5037285;28;20435;-63
2023/02/06 01:57:49;;;;;;;14.17;5.83;;;7.20;99.90;;;;;;5040173;28;20431;-63
2023/02/06 02:00:15;;;;;;;9.53;6.30;;;7.10;99.90;;;;;;5051183;28;20259;-63
2023/02/06 02:02:43;;;;;;;13.30;4.97;;;7.10;99.90;;;;;;5051777;28;20419;-63
2023/02/06 02:05:11;;;;;;;18.07;6.43;;;7.00;99.90;;;;;;5051093;28;20438;-63
2023/02/06 02:07:42;;;;;;;18.87;5.67;;;7.00;99.90;;;;;;5051107;28;20422;-63
2023/02/06 02:10:08;;;;;;;12.97;5.40;;;7.00;99.90;;;;;;5052132;28;20451;-63
2023/02/06 02:12:34;;;;;;;14.23;6.37;;;7.00;99.90;;;;;;5051047;28;20522;-63
2023/02/06 02:15:00;;;;;;;12.73;6.20;;;7.00;99.90;;;;;;5050144;28;20446;-63
2023/02/06 02:17:38;;;;;;;10.73;5.20;;;7.00;99.90;;;;;;5034351;28;20174;-63
2023/02/06 02:20:40;;;;;;;9.53;5.90;;;7.00;99.90;;;;;;5049193;28;20190;-63
2023/02/06 02:23:47;;;;;;;17.17;5.07;;;6.90;99.90;;;;;;5051238;28;20774;-63
2023/02/06 02:26:20;;;;;;;13.00;5.63;;;6.90;99.90;;;;;;5051058;28;20499;-63
2023/02/06 02:29:30;;;;;;;18.60;6.60;;;6.90;99.90;;;;;;5051186;28;20512;-63
2023/02/06 02:32:08;;;;;;;9.43;5.20;;;6.90;99.90;;;;;;5051383;28;20519;-63
2023/02/06 02:34:57;;;;;;;10.70;5.30;;;6.90;99.90;;;;;;5050809;28;20498;-63
2023/02/06 02:37:45;;;;;;;15.03;5.77;;;6.90;99.90;;;;;;5050835;28;20798;-62
2023/02/06 02:40:29;;;;;;;12.47;5.30;;;6.80;99.90;;;;;;5049290;28;20523;-62
2023/02/06 02:43:24;;;;;;;12.50;5.50;;;6.80;99.90;;;;;;5037804;28;20846;-62
2023/02/06 02:46:24;;;;;;;17.70;5.73;;;6.80;99.90;;;;;;4999941;28;20558;-62
2023/02/06 02:48:53;;;;;;;21.67;6.30;;;6.70;99.90;;;;;;5040641;28;20433;-62
2023/02/06 02:51:19;;;;;;;15.50;5.97;;;6.60;99.90;;;;;;5051952;28;20465;-62
2023/02/06 02:53:45;;;;;;;20.37;5.63;;;6.60;99.90;;;;;;5053333;28;20548;-62
2023/02/06 02:56:22;;;;;;;14.30;5.57;;;6.60;99.90;;;;;;5037452;28;20928;-62
2023/02/06 02:58:53;;;;;;;13.70;5.57;;;6.60;99.90;;;;;;5053669;28;20404;-62
2023/02/06 03:01:26;;;;;;;11.25;5.65;;;6.60;99.90;;;;;;5054198;28;20643;-63
2023/02/06 03:03:56;;;;;;;15.37;6.13;;;6.50;99.90;;;;;;5051120;28;20237;-63
2023/02/06 03:06:43;;;;;;;10.10;5.60;;;6.50;99.90;;;;;;5055411;28;20383;-63
2023/02/06 03:09:40;;;;;;;13.50;5.40;;;6.50;99.90;;;;;;5052977;28;20459;-64
2023/02/06 03:12:26;;;;;;;10.73;5.50;;;6.50;99.90;;;;;;5053196;28;20812;-63
2023/02/06 03:15:01;;;;;;;21.43;6.10;;;6.50;99.90;;;;;;5050764;28;20785;-63
2023/02/06 03:17:34;;;;;;;14.57;5.05;;;6.40;99.90;;;;;;5049393;28;20785;-63
2023/02/06 03:20:03;;;;;;;8.45;4.80;;;6.40;99.90;;;;;;5053164;28;20533;-63
2023/02/06 03:22:31;;;;;;;9.98;5.28;;;6.40;99.90;;;;;;5053826;28;20177;-63
2023/02/06 03:24:58;;;;;;;13.75;5.25;;;6.40;99.90;;;;;;5052929;28;20595;-64
2023/02/06 03:27:25;;;;;;;11.80;5.45;;;6.40;99.90;;;;;;5036254;28;20183;-63
2023/02/06 03:29:53;;;;;;;16.57;5.60;;;6.30;99.90;;;;;;5053214;28;20191;-63
2023/02/06 03:32:26;;;;;;;14.07;5.50;;;6.30;99.90;;;;;;5043926;28;20457;-63
2023/02/06 03:34:58;;;;;;;12.13;6.47;;;6.40;99.90;;;;;;5054356;28;20237;-63
2023/02/06 03:37:25;;;;;;;11.43;5.88;;;6.40;99.90;;;;;;5052806;28;20447;-63
2023/02/06 03:39:51;;;;;;;20.15;5.57;;;6.40;99.90;;;;;;5052174;28;20516;-63
2023/02/06 03:42:20;;;;;;;8.50;5.37;;;6.40;99.90;;;;;;5054782;28;20194;-63
2023/02/06 03:44:51;;;;;;;14.65;6.15;;;6.40;99.90;;;;;;5051658;28;20469;-63
2023/02/06 03:47:19;;;;;;;10.95;5.90;;;6.40;99.90;;;;;;5053245;28;20182;-63
2023/02/06 03:49:46;;;;;;;13.13;5.20;;;6.50;99.90;;;;;;5052543;28;20186;-64
2023/02/06 03:52:17;;;;;;;9.73;6.40;;;6.50;99.90;;;;;;5054260;28;20479;-63
2023/02/06 03:54:50;;;;;;;16.33;5.72;;;6.40;99.90;;;;;;5053263;28;20417;-63
2023/02/06 03:57:18;;;;;;;8.67;5.47;;;6.60;99.90;;;;;;5053151;28;20189;-63
2023/02/06 03:59:45;;;;;;;15.68;5.65;;;6.50;99.90;;;;;;5052927;28;20436;-63
2023/02/06 04:02:12;;;;;;;15.13;6.27;;;6.50;99.90;;;;;;5054317;28;20532;-63
2023/02/06 04:04:40;;;;;;;18.93;6.90;;;6.60;99.90;;;;;;5052837;28;20824;-63
2023/02/06 04:07:15;;;;;;;12.23;5.53;;;6.90;99.90;;;;;;5051966;28;20861;-63
2023/02/06 04:09:41;;;;;;;13.35;6.22;;;6.50;99.90;;;;;;5052845;28;20448;-63
2023/02/06 04:12:07;;;;;;;12.60;5.60;;;6.60;99.90;;;;;;5052258;28;20245;-63
2023/02/06 04:14:35;;;;;;;7.80;5.10;;;6.50;99.90;;;;;;5052630;28;20179;-64
2023/02/06 04:17:02;;;;;;;9.87;5.83;;;7.10;99.90;;;;;;5052050;28;20466;-63
2023/02/06 04:19:28;;;;;;;19.60;6.50;;;6.60;99.90;;;;;;5053897;28;20407;-63
2023/02/06 04:21:53;;;;;;;14.20;6.47;;;6.50;99.90;;;;;;5048414;28;20912;-63
2023/02/06 04:24:19;;;;;;;14.93;6.97;;;6.50;99.90;;;;;;5052653;28;20192;-63
2023/02/06 04:26:45;;;;;;;15.27;7.30;;;6.60;99.90;;;;;;5052749;28;20193;-63
2023/02/06 04:29:11;;;;;;;23.83;10.00;;;6.60;99.90;;;;;;5051000;28;20213;-63
2023/02/06 04:31:38;;;;;;;24.17;8.77;;;6.60;99.90;;;;;;5049024;28;20210;-63
2023/02/06 04:34:03;;;;;;;26.67;10.87;;;6.60;99.90;;;;;;5047660;28;20404;-63
2023/02/06 04:36:29;;;;;;;27.87;10.87;;;6.60;99.90;;;;;;4999407;28;20768;-63
2023/02/06 04:38:55;;;;;;;20.60;9.67;;;6.60;99.90;;;;;;5032771;28;20190;-63
2023/02/06 04:41:21;;;;;;;16.37;8.70;;;6.60;99.90;;;;;;5044686;28;20314;-62
2023/02/06 04:43:46;;;;;;;22.80;10.03;;;6.60;99.90;;;;;;5035690;28;20184;-62
2023/02/06 04:46:12;;;;;;;26.67;10.30;;;6.60;99.90;;;;;;5033142;28;20197;-63
2023/02/06 04:48:38;;;;;;;23.60;9.80;;;6.60;99.90;;;;;;5034482;28;20265;-63
2023/02/06 04:51:03;;;;;;;24.20;10.27;;;6.60;99.90;;;;;;5051531;28;20268;-63
2023/02/06 04:53:29;;;;;;;19.07;9.90;;;6.60;99.90;;;;;;5051756;28;20193;-63
2023/02/06 04:56:06;;;;;;;23.20;9.70;;;6.60;99.90;;;;;;5013846;28;20568;-63
2023/02/06 04:58:32;;;;;;;28.87;10.43;;;6.70;99.90;;;;;;5032940;28;20168;-63
2023/02/06 05:00:58;;;;;;;27.93;13.00;;;6.70;99.90;;;;;;5026772;28;20416;-63
2023/02/06 05:03:24;;;;;;;28.83;10.70;;;6.80;99.90;;;;;;5041962;28;20425;-63
2023/02/06 05:05:51;;;;;;;29.33;12.37;;;6.70;99.90;;;;;;5051083;28;20187;-64
2023/02/06 05:08:17;;;;;;;22.60;11.63;;;6.70;99.90;;;;;;5052029;28;20424;-62
2023/02/06 05:10:42;;;;;;;26.17;10.80;;;6.70;99.90;;;;;;5045514;28;20507;-62
2023/02/06 05:13:08;;;;;;;24.30;11.70;;;6.70;99.90;;;;;;5038153;28;20413;-63
2023/02/06 05:15:35;;;;;;;28.73;12.00;;;6.70;99.90;;;;;;5041603;28;20192;-62
2023/02/06 05:18:01;;;;;;;34.10;12.33;;;6.70;99.90;;;;;;5042675;28;20183;-62
2023/02/06 05:20:27;;;;;;;31.93;11.70;;;7.10;99.90;;;;;;5045907;28;20430;-63
2023/02/06 05:22:53;;;;;;;24.27;10.70;;;6.80;99.90;;;;;;5019647;28;20433;-62
2023/02/06 05:25:19;;;;;;;31.17;13.27;;;6.80;99.90;;;;;;5048737;28;20441;-62
2023/02/06 05:27:45;;;;;;;23.53;11.40;;;6.80;99.90;;;;;;5051430;28;20433;-62
2023/02/06 05:30:11;;;;;;;26.83;12.27;;;6.90;99.90;;;;;;5051975;28;20418;-62
2023/02/06 05:32:37;;;;;;;28.13;11.43;;;6.90;99.90;;;;;;5050921;28;20231;-63
2023/02/06 05:35:03;;;;;;;31.37;12.90;;;7.00;99.90;;;;;;5050560;28;20927;-62
2023/02/06 05:37:29;;;;;;;26.20;12.70;;;6.90;99.90;;;;;;5030191;28;20543;-62
2023/02/06 05:39:54;;;;;;;22.93;11.30;;;6.90;99.90;;;;;;5031839;28;20422;-62
2023/02/06 05:42:20;;;;;;;31.73;12.00;;;6.90;99.90;;;;;;5032764;28;20617;-62
2023/02/06 05:44:46;;;;;;;28.63;13.90;;;6.80;99.90;;;;;;5017426;28;20265;-62
2023/02/06 05:47:11;;;;;;;28.43;12.97;;;6.80;99.90;;;;;;5051750;28;20182;-62
2023/02/06 05:49:37;;;;;;;34.30;13.60;;;6.80;99.90;;;;;;5051047;28;20187;-62
2023/02/06 05:52:03;;;;;;;23.43;12.13;;;6.80;99.90;;;;;;5049266;28;20253;-66
2023/02/06 05:54:29;;;;;;;25.47;12.37;;;6.70;99.90;;;;;;5051735;28;20471;-63
2023/02/06 05:56:56;;;;;;;25.33;13.00;;;6.80;99.90;;;;;;5050529;28;20433;-63
2023/02/06 05:59:23;;;;;;;24.50;13.40;;;6.70;99.90;;;;;;5041749;28;20636;-63
2023/02/06 06:01:48;;;;;;;20.93;11.67;;;6.70;99.90;;;;;;5022451;28;20463;-63
2023/02/06 06:04:14;;;;;;;26.50;11.47;;;6.70;99.90;;;;;;5045745;28;20466;-63
2023/02/06 06:06:40;;;;;;;21.77;11.67;;;6.60;99.90;;;;;;5043404;28;20440;-63
2023/02/06 06:09:06;;;;;;;29.87;11.93;;;6.70;99.90;;;;;;5031008;28;20554;-64
2023/02/06 06:11:32;;;;;;;20.67;13.37;;;6.70;99.90;;;;;;5033520;28;20453;-63
2023/02/06 06:13:58;;;;;;;24.03;11.00;;;6.70;99.90;;;;;;5017900;28;20187;-66
2023/02/06 06:16:24;;;;;;;20.13;10.47;;;6.70;99.90;;;;;;5032198;28;20192;-63
2023/02/06 06:18:49;;;;;;;25.03;11.37;;;6.80;99.90;;;;;;5050332;28;20426;-63
2023/02/06 06:21:15;;;;;;;21.53;10.80;;;6.80;99.90;;;;;;5048555;28;20269;-63
2023/02/06 06:23:41;;;;;;;18.50;8.83;;;6.90;99.90;;;;;;5050829;28;20250;-63
2023/02/06 06:26:07;;;;;;;21.33;9.00;;;6.80;99.90;;;;;;5053095;28;20389;-63
2023/02/06 06:28:34;;;;;;;23.37;9.60;;;6.80;99.90;;;;;;5054451;28;20194;-63
2023/02/06 06:31:02;;;;;;;22.30;11.25;;;6.80;99.90;;;;;;5029841;28;20253;-63
2023/02/06 06:33:28;;;;;;;18.13;9.77;;;6.80;99.90;;;;;;5054822;28;20192;-63
2023/02/06 06:35:54;;;;;;;27.20;10.60;;;6.80;99.90;;;;;;5037282;28;20179;-67
2023/02/06 06:38:20;;;;;;;22.00;10.47;;;6.80;99.90;;;;;;5055397;28;20405;-63
2023/02/06 06:40:46;;;;;;;22.03;9.67;;;6.80;99.90;;;;;;5044387;28;20470;-63
2023/02/06 06:43:11;;;;;;;27.50;12.97;;;6.80;99.90;;;;;;5036335;28;20198;-63
2023/02/06 06:45:37;;;;;;;19.60;10.43;;;6.80;99.90;;;;;;5022277;28;20195;-63
2023/02/06 06:48:03;;;;;;;24.53;11.90;;;6.80;99.90;;;;;;5016400;28;20196;-63
2023/02/06 06:50:29;;;;;;;29.13;13.17;;;6.80;99.90;;;;;;5039203;28;20190;-63
2023/02/06 06:52:55;;;;;;;25.93;13.10;;;7.00;99.90;;;;;;5053975;28;20183;-63
2023/02/06 06:55:20;;;;;;;35.60;13.10;;;6.90;99.90;;;;;;5055373;28;20182;-63
2023/02/06 06:57:46;;;;;;;38.83;14.13;;;6.80;99.90;;;;;;5051282;28;20959;-63
2023/02/06 07:00:13;;;;;;;30.47;12.67;;;6.80;99.90;;;;;;5049844;28;20649;-63
2023/02/06 07:02:39;;;;;;;28.03;12.83;;;6.80;99.90;;;;;;5025080;28;20433;-63
2023/02/06 07:05:05;;;;;;;29.23;13.23;;;6.80;99.90;;;;;;5042534;28;20431;-63
2023/02/06 07:07:31;;;;;;;25.97;12.10;;;6.70;99.90;;;;;;5044837;28;20473;-63
2023/02/06 07:09:58;;;;;;;32.60;13.37;;;6.70;99.90;;;;;;5034471;28;20417;-64
2023/02/06 07:12:25;;;;;;;28.30;12.77;;;6.80;99.90;;;;;;5025067;28;21022;-66
2023/02/06 07:14:50;;;;;;;32.23;13.93;;;6.70;99.90;;;;;;5045406;28;20969;-66
2023/02/06 07:17:16;;;;;;;20.30;11.83;;;7.40;99.90;;;;;;5049340;28;20763;-68
2023/02/06 07:19:46;;;;;;;23.43;12.07;;;8.20;99.90;;;;;;5039998;28;20188;-68
2023/02/06 07:22:13;;;;;;;26.27;13.10;;;8.60;99.90;;;;;;5033945;28;20280;-68
2023/02/06 07:24:39;;;;;;;25.87;14.30;;;9.10;99.90;;;;;;5044842;28;20421;-68
2023/02/06 07:27:05;;;;;;;24.83;11.27;;;9.50;99.90;;;;;;5035039;28;20413;-68
2023/02/06 07:29:31;;;;;;;22.23;11.47;;;9.90;99.90;;;;;;5033981;28;20455;-69
2023/02/06 07:31:57;;;;;;;23.07;11.23;;;10.50;99.90;;;;;;5036442;28;20606;-68
2023/02/06 07:34:23;;;;;;;27.03;14.70;;;10.90;99.90;;;;;;5033877;28;20218;-67
2023/02/06 07:36:49;;;;;;;23.37;11.50;;;11.30;99.90;;;;;;5034772;28;20970;-68
2023/02/06 07:39:15;;;;;;;22.13;12.70;;;11.70;99.90;;;;;;5053403;28;20185;-68
2023/02/06 07:41:41;;;;;;;17.17;11.60;;;12.10;99.90;;;;;;5051807;28;20565;-68
2023/02/06 07:44:09;;;;;;;19.13;10.90;;;12.30;99.90;;;;;;5053918;28;20951;-67
2023/02/06 07:46:35;;;;;;;21.07;13.13;;;12.50;98.40;;;;;;5054491;28;20531;-67
2023/02/06 07:49:01;;;;;;;29.07;14.20;;;12.70;99.20;;;;;;5053360;28;21034;-68
2023/02/06 07:51:26;;;;;;;26.27;12.67;;;12.90;98.30;;;;;;5050639;28;20480;-68
2023/02/06 07:53:52;;;;;;;20.90;13.30;;;13.10;97.90;;;;;;5040651;28;20238;-67
2023/02/06 07:56:19;;;;;;;24.70;13.50;;;13.30;96.30;;;;;;5020445;28;20225;-67
2023/02/06 07:58:50;;;;;;;22.30;12.73;;;13.40;96.20;;;;;;5034226;28;20184;-67
2023/02/06 08:01:16;;;;;;;23.03;12.73;;;13.60;95.50;;;;;;5033698;28;20847;-67
2023/02/06 08:03:42;;;;;;;27.60;12.40;;;13.70;93.10;;;;;;5037981;28;20544;-65
2023/02/06 08:06:13;;;;;;;21.63;11.60;;;13.60;90.70;;;;;;5037775;28;20644;-64
2023/02/06 08:08:40;;;;;;;23.50;11.40;;;13.10;88.50;;;;;;5040820;28;20588;-64
2023/02/06 08:11:07;;;;;;;32.37;13.43;;;12.50;88.20;;;;;;5048970;28;20961;-64
2023/02/06 08:13:33;;;;;;;21.93;12.83;;;11.60;90.70;;;;;;5045516;28;20451;-64
2023/02/06 08:16:04;;;;;;;23.60;12.47;;;11.10;92.20;;;;;;5046114;28;20515;-65
2023/02/06 08:18:30;;;;;;;27.93;14.40;;;10.70;93.90;;;;;;5033891;28;20407;-65
2023/02/06 08:21:04;;;;;;;25.23;12.60;;;10.40;95.60;;;;;;5033246;28;20810;-64
2023/02/06 08:23:31;;;;;;;28.83;12.17;;;10.10;97.00;;;;;;5039151;28;20530;-64
2023/02/06 08:26:04;;;;;;;22.30;12.37;;;9.80;98.80;;;;;;5049516;28;20450;-65
2023/02/06 08:28:31;;;;;;;31.90;13.53;;;9.60;99.90;;;;;;5018915;28;20432;-64
2023/02/06 08:30:57;;;;;;;35.43;14.40;;;9.40;99.90;;;;;;5053471;28;20498;-64
2023/02/06 08:33:23;;;;;;;37.80;16.27;;;9.20;99.90;;;;;;5052913;28;20412;-64
2023/02/06 08:35:48;;;;;;;32.30;14.43;;;9.00;99.90;;;;;;5053526;28;20408;-64
2023/02/06 08:38:14;;;;;;;21.53;14.83;;;8.70;99.90;;;;;;5035222;28;20400;-64
2023/02/06 08:40:40;;;;;;;27.27;13.60;;;8.50;99.90;;;;;;5042235;28;20240;-64
2023/02/06 08:43:05;;;;;;;27.20;14.97;;;8.30;99.90;;;;;;5069936;28;20346;-64
2023/02/06 08:45:31;;;;;;;27.53;13.27;;;8.20;99.90;;;;;;5069154;28;20188;-64
2023/02/06 08:47:57;;;;;;;20.03;11.83;;;8.20;99.90;;;;;;5063380;28;20222;-64
2023/02/06 08:50:23;;;;;;;23.77;14.20;;;8.10;99.90;;;;;;5067892;28;20480;-64
2023/02/06 08:52:48;;;;;;;30.93;13.80;;;7.80;99.90;;;;;;5053230;28;20216;-64
2023/02/06 08:55:14;;;;;;;38.70;14.60;;;7.60;99.90;;;;;;5058905;28;20181;-64
2023/02/06 08:57:40;;;;;;;30.70;15.47;;;7.50;99.90;;;;;;5053186;28;20165;-64
2023/02/06 09:00:06;;;;;;;32.80;14.07;;;7.50;99.90;;;;;;5052531;28;20168;-64
2023/02/06 09:02:32;;;;;;;27.93;14.10;;;7.50;99.90;;;;;;5053895;28;20187;-64
2023/02/06 09:04:58;;;;;;;29.37;13.37;;;7.50;99.90;;;;;;5053149;28;20401;-65
2023/02/06 09:07:24;;;;;;;25.77;12.57;;;7.40;99.90;;;;;;5055404;28;20913;-64
2023/02/06 09:09:50;;;;;;;31.23;12.97;;;7.10;99.90;;;;;;5051834;28;20595;-65
2023/02/06 09:12:15;;;;;;;30.60;13.00;;;7.10;99.90;;;;;;5052092;28;20522;-64
2023/02/06 09:14:41;;;;;;;29.30;13.37;;;6.90;99.90;;;;;;5058233;28;20175;-64
2023/02/06 09:17:07;;;;;;;31.67;13.80;;;6.60;99.90;;;;;;5049695;28;20175;-67
2023/02/06 09:19:33;;;;;;;28.53;13.47;;;6.60;99.90;;;;;;5062039;28;20577;-65
2023/02/06 09:21:58;;;;;;;31.37;12.97;;;6.70;99.90;;;;;;5079974;28;20181;-65
2023/02/06 09:24:26;;;;;;;31.17;13.20;;;6.70;99.90;;;;;;5072118;28;20183;-66
2023/02/06 09:26:51;;;;;;;24.93;13.40;;;6.80;99.90;;;;;;5071649;28;20177;-65
2023/02/06 09:29:17;;;;;;;20.73;12.57;;;6.70;99.90;;;;;;5062221;28;20430;-64
2023/02/06 09:31:43;;;;;;;35.90;13.70;;;6.70;99.90;;;;;;5053182;28;20723;-69
2023/02/06 09:34:11;;;;;;;27.00;13.57;;;6.60;99.90;;;;;;5058698;28;20443;-65
2023/02/06 09:36:37;;;;;;;27.77;12.83;;;6.70;99.90;;;;;;5071408;28;20420;-64
2023/02/06 09:39:05;;;;;;;31.87;14.67;;;6.80;99.90;;;;;;5068649;28;20988;-65
2023/02/06 09:41:33;;;;;;;32.00;15.10;;;6.80;99.90;;;;;;5037471;28;20944;-65
2023/02/06 09:44:09;;;;;;;30.20;14.30;;;6.90;99.90;;;;;;5015312;28;20467;-65
2023/02/06 09:46:47;;;;;;;37.13;14.97;;;7.00;99.90;;;;;;5044965;28;20406;-65
2023/02/06 09:49:20;;;;;;;22.33;13.07;;;7.10;99.90;;;;;;5051684;28;20390;-63
2023/02/06 09:52:22;;;;;;;23.57;13.83;;;7.20;99.90;;;;;;5050933;28;20515;-63
2023/02/06 09:55:22;;;;;;;23.40;13.23;;;7.20;99.90;;;;;;5033848;28;20404;-64
2023/02/06 09:58:06;;;;;;;28.70;15.50;;;7.30;99.90;;;;;;5034725;28;20728;-64
2023/02/06 10:00:38;;;;;;;27.20;13.00;;;7.40;99.90;;;;;;5054842;28;20415;-64
2023/02/06 10:03:47;;;;;;;30.17;13.40;;;7.40;99.90;;;;;;5038487;28;20424;-64
2023/02/06 10:06:19;;;;;;;22.13;13.10;;;7.50;99.90;;;;;;5016423;28;20937;-63
2023/02/06 10:08:54;;;;;;;22.17;13.30;;;7.60;99.90;;;;;;5041066;28;20441;-63
2023/02/06 10:11:31;;;;;;;24.20;12.57;;;7.50;99.90;;;;;;5021849;28;20473;-64
2023/02/06 10:14:02;;;;;;;21.60;11.83;;;7.60;99.90;;;;;;5037355;28;20442;-63
2023/02/06 10:16:51;;;;;;;18.53;10.97;;;7.70;99.90;;;;;;5049624;28;20822;-63
2023/02/06 10:19:30;;;;;;;21.63;12.33;;;7.80;99.90;;;;;;5039253;28;20453;-64
2023/02/06 10:22:09;;;;;;;14.47;9.00;;;7.90;99.90;;;;;;5018165;28;20784;-63
2023/02/06 10:25:13;;;;;;;16.30;9.53;;;7.90;99.90;;;;;;5027263;28;20431;-63
2023/02/06 10:27:43;;;;;;;13.90;10.10;;;7.90;99.90;;;;;;5017585;28;20426;-63
2023/02/06 10:30:18;;;;;;;10.57;8.50;;;7.90;99.90;;;;;;5053147;28;20439;-63
2023/02/06 10:33:13;;;;;;;14.13;7.97;;;7.90;99.90;;;;;;5055856;28;20445;-63
2023/02/06 10:36:08;;;;;;;15.60;9.07;;;7.90;99.90;;;;;;5055930;28;20403;-63
2023/02/06 10:38:40;;;;;;;11.37;8.63;;;7.90;99.90;;;;;;5055913;28;20399;-63
2023/02/06 10:41:24;;;;;;;16.33;8.00;;;7.90;99.90;;;;;;5055691;28;20516;-63
2023/02/06 10:43:58;;;;;;;11.60;8.30;;;7.80;99.90;;;;;;5055283;28;20816;-63
2023/02/06 10:46:46;;;;;;;11.40;7.33;;;7.70;99.90;;;;;;5037361;28;20460;-63
2023/02/06 10:49:19;;;;;;;17.57;8.30;;;7.70;99.90;;;;;;5047989;28;20503;-63
2023/02/06 10:51:51;;;;;;;12.20;7.80;;;7.80;99.90;;;;;;5055572;28;20439;-63
2023/02/06 10:54:39;;;;;;;9.83;6.43;;;7.90;99.90;;;;;;5036963;28;20447;-63
2023/02/06 10:57:16;;;;;;;11.67;6.30;;;8.10;99.90;;;;;;5055259;28;20440;-63
2023/02/06 10:59:50;;;;;;;10.83;7.10;;;8.20;99.90;;;;;;5055529;28;20483;-63
2023/02/06 11:02:27;;;;;;;13.20;7.77;;;8.50;99.90;;;;;;5036889;28;20515;-63
2023/02/06 11:05:04;;;;;;;10.83;7.23;;;8.50;99.90;;;;;;5055332;28;20440;-63
2023/02/06 11:07:37;;;;;;;14.07;8.50;;;8.80;99.90;;;;;;5054742;28;20400;-63
2023/02/06 11:10:05;;;;;;;15.00;8.30;;;9.00;99.90;;;;;;5053296;28;20472;-63
2023/02/06 11:12:41;;;;;;;10.43;8.60;;;9.30;99.90;;;;;;5053667;28;20551;-63
2023/02/06 11:15:39;;;;;;;11.33;7.03;;;9.60;99.90;;;;;;5055158;28;20482;-63
2023/02/06 11:18:10;;;;;;;12.20;7.30;;;9.90;99.90;;;;;;5054794;28;20385;-63
2023/02/06 11:20:40;;;;;;;12.60;8.73;;;10.10;99.90;;;;;;5053077;28;20448;-63
2023/02/06 11:23:24;;;;;;;11.30;8.80;;;10.30;99.90;;;;;;5036968;28;20942;-63
2023/02/06 11:26:04;;;;;;;13.47;8.63;;;10.30;99.90;;;;;;5054287;28;20415;-63
2023/02/06 11:28:33;;;;;;;12.93;8.63;;;10.20;99.90;;;;;;5019968;28;20404;-63
2023/02/06 11:31:03;;;;;;;13.60;9.03;;;10.20;99.90;;;;;;5054600;28;20451;-63
2023/02/06 11:33:47;;;;;;;18.60;8.17;;;10.20;99.90;;;;;;5054248;28;20403;-63
2023/02/06 11:36:29;;;;;;;13.17;8.57;;;10.10;99.90;;;;;;5054057;28;20808;-63
2023/02/06 11:39:01;;;;;;;15.20;7.83;;;10.10;99.90;;;;;;5036881;28;20397;-65
2023/02/06 11:41:28;;;;;;;13.47;7.17;;;10.10;99.90;;;;;;5052708;28;20519;-63
2023/02/06 11:44:05;;;;;;;18.73;7.20;;;10.00;99.90;;;;;;5054535;28;20473;-63
2023/02/06 11:46:35;;;;;;;13.37;7.33;;;9.90;99.90;;;;;;5053947;28;20395;-63
2023/02/06 11:49:20;;;;;;;11.47;5.70;;;9.90;99.90;;;;;;5053905;28;20893;-63
2023/02/06 11:51:55;;;;;;;9.83;7.03;;;9.80;99.90;;;;;;5054366;28;20463;-63
2023/02/06 11:54:29;;;;;;;12.67;6.97;;;9.80;99.90;;;;;;5049670;28;20960;-63
2023/02/06 11:57:19;;;;;;;12.40;6.43;;;9.50;99.90;;;;;;5020042;28;20736;-63
2023/02/06 11:59:54;;;;;;;14.00;6.90;;;9.50;99.90;;;;;;5054329;28;20389;-63
2023/02/06 12:02:32;;;;;;;6.57;5.40;;;9.40;99.90;;;;;;5053422;28;20455;-63
2023/02/06 12:05:09;;;;;;;8.17;6.40;;;9.40;99.90;;;;;;5053873;28;20422;-63
2023/02/06 12:07:48;;;;;;;8.03;5.73;;;9.40;99.90;;;;;;5035556;28;20404;-63
2023/02/06 12:10:19;;;;;;;11.63;6.67;;;9.50;99.90;;;;;;5053630;28;20418;-68
2023/02/06 12:13:01;;;;;;;12.90;8.10;;;9.40;99.90;;;;;;5053462;28;20556;-65
2023/02/06 12:15:37;;;;;;;10.47;7.07;;;9.40;99.90;;;;;;4999445;28;20418;-63
2023/02/06 12:18:14;;;;;;;17.70;6.70;;;9.20;99.90;;;;;;5033983;28;20455;-63
2023/02/06 12:20:59;;;;;;;11.53;6.83;;;9.30;99.90;;;;;;5033601;28;20894;-62
2023/02/06 12:23:45;;;;;;;13.33;7.80;;;9.20;99.90;;;;;;5032142;28;20437;-63
2023/02/06 12:26:19;;;;;;;11.80;6.90;;;9.20;99.90;;;;;;5034118;28;20398;-63
2023/02/06 12:29:05;;;;;;;11.93;6.60;;;9.30;99.90;;;;;;5033948;28;20417;-62
2023/02/06 12:31:52;;;;;;;9.90;8.40;;;9.30;99.90;;;;;;5015338;28;20462;-63
2023/02/06 12:34:40;;;;;;;11.97;8.70;;;9.30;99.90;;;;;;5032844;28;20866;-63
2023/02/06 12:37:20;;;;;;;13.50;8.57;;;9.20;99.90;;;;;;5046637;28;20431;-62
2023/02/06 12:39:47;;;;;;;13.10;7.60;;;9.20;99.90;;;;;;5053501;28;20420;-63
2023/02/06 12:42:35;;;;;;;10.40;7.73;;;9.30;99.90;;;;;;5035716;28;20519;-62
2023/02/06 12:45:19;;;;;;;11.83;7.43;;;9.20;99.90;;;;;;5053278;28;20462;-63
2023/02/06 12:48:13;;;;;;;7.27;6.57;;;9.00;99.90;;;;;;5053065;28;20964;-62
2023/02/06 12:50:50;;;;;;;11.27;8.10;;;8.90;99.90;;;;;;5052685;28;20484;-63
2023/02/06 12:53:36;;;;;;;14.90;7.63;;;8.90;99.90;;;;;;5053238;28;20404;-68
2023/02/06 12:56:31;;;;;;;15.23;7.43;;;8.60;99.90;;;;;;5035462;28;20413;-63
2023/02/06 12:59:08;;;;;;;17.87;9.37;;;8.50;99.90;;;;;;5050941;28;20766;-62
2023/02/06 13:01:54;;;;;;;9.27;7.97;;;8.50;99.90;;;;;;5052172;28;20412;-63